createdAt,value
2023-05-10T00:01:41.403Z,100732.31
2023-05-10T00:04:08.711Z,100720.22
2023-05-10T00:06:35.622Z,100721.81
2023-05-10T00:09:02.337Z,100722.63
2023-05-10T00:19:04.985Z,100723.28
2023-05-10T00:21:33.138Z,100724.13
2023-05-10T00:24:00.035Z,100723.09
2023-05-10T00:26:27.134Z,100721.22
2023-05-10T00:28:53.836Z,100719.38
2023-05-10T00:31:20.518Z,100719.38
2023-05-10T00:33:47.255Z,100718.56
2023-05-10T00:36:15.243Z,100710.31
2023-05-10T00:38:42.031Z,100717.53
2023-05-10T00:41:08.985Z,100713.22
2023-05-10T00:43:35.722Z,100715.88
2023-05-10T00:46:02.574Z,100716.47
2023-05-10T00:48:30.441Z,100711.94
2023-05-10T00:50:57.184Z,100711.94
2023-05-10T00:53:25.681Z,100708.44
2023-05-10T00:55:52.482Z,100709.50
2023-05-10T00:58:19.267Z,100706.81
2023-05-10T01:00:47.558Z,100706.81
2023-05-10T01:03:15.379Z,100700.66
2023-05-10T01:05:42.287Z,100708.69
2023-05-10T01:08:09.660Z,100711.34
2023-05-10T01:10:37.855Z,100704.16
2023-05-10T01:13:04.948Z,100709.50
2023-05-10T01:15:32.392Z,100706.81
2023-05-10T01:18:00.534Z,100705.19
2023-05-10T01:20:33.093Z,100710.31
2023-05-10T01:23:25.693Z,100706.81
2023-05-10T01:26:19.642Z,100713.00
2023-05-10T01:29:11.587Z,100710.31
2023-05-10T01:32:13.719Z,100714.84
2023-05-10T01:34:52.749Z,100714.84
2023-05-10T01:37:26.200Z,100713.00
2023-05-10T01:40:02.192Z,100718.56
2023-05-10T01:42:37.710Z,100710.94
2023-05-10T01:45:13.264Z,100713.00
2023-05-10T01:47:43.344Z,100710.34
2023-05-10T01:50:18.531Z,100718.16
2023-05-10T01:52:55.735Z,100722.69
2023-05-10T01:55:26.181Z,100717.56
2023-05-10T01:58:01.372Z,100711.41
2023-05-10T02:00:29.829Z,100714.06
2023-05-10T02:02:57.550Z,100716.50
2023-05-10T02:05:28.817Z,100714.88
2023-05-10T02:07:56.504Z,100719.41
2023-05-10T02:10:23.361Z,100714.06
2023-05-10T02:12:52.785Z,100711.97
2023-05-10T02:15:23.222Z,100720.63
2023-05-10T02:17:50.630Z,100717.13
2023-05-10T02:20:20.188Z,100720.63
2023-05-10T02:22:50.266Z,100728.66
2023-05-10T02:25:18.897Z,100725.16
2023-05-10T02:27:47.972Z,100720.81
2023-05-10T02:30:15.982Z,100734.41
2023-05-10T02:32:44.057Z,100735.03
2023-05-10T02:35:12.127Z,100739.56
2023-05-10T02:37:40.782Z,100735.47
2023-05-10T02:40:11.237Z,100738.34
2023-05-10T02:42:42.534Z,100734.03
2023-05-10T02:45:13.112Z,100742.69
2023-05-10T02:47:40.236Z,100737.53
2023-05-10T02:50:08.212Z,100743.69
2023-05-10T02:52:41.253Z,100744.13
2023-05-10T02:55:12.702Z,100745.38
2023-05-10T02:57:42.285Z,100743.72
2023-05-10T03:00:09.816Z,100744.75
2023-05-10T03:02:37.376Z,100739.81
2023-05-10T03:05:05.031Z,100743.53
2023-05-10T03:07:31.770Z,100741.50
2023-05-10T03:09:58.500Z,100743.34
2023-05-10T03:12:34.548Z,100748.91
2023-05-10T03:15:12.996Z,100748.31
2023-05-10T03:17:48.248Z,100755.50
2023-05-10T03:20:24.253Z,100756.53
2023-05-10T03:22:54.749Z,100754.91
2023-05-10T03:25:23.144Z,100753.22
2023-05-10T03:27:53.017Z,100753.41
2023-05-10T03:30:21.047Z,100757.75
2023-05-10T03:32:47.996Z,100758.56
2023-05-10T03:35:17.828Z,100759.41
2023-05-10T03:37:44.591Z,100762.91
2023-05-10T03:40:12.017Z,100765.38
2023-05-10T03:42:38.702Z,100765.59
2023-05-10T03:45:08.291Z,100762.25
2023-05-10T03:47:34.966Z,100767.63
2023-05-10T03:50:01.877Z,100766.22
2023-05-10T03:52:28.603Z,100767.03
2023-05-10T03:54:55.248Z,100768.06
2023-05-10T03:57:21.933Z,100773.41
2023-05-10T03:59:48.608Z,100780.59
2023-05-10T04:02:16.705Z,100783.06
2023-05-10T04:04:44.020Z,100783.06
2023-05-10T04:07:11.394Z,100787.38
2023-05-10T04:09:38.227Z,100787.38
2023-05-10T04:12:05.409Z,100781.22
2023-05-10T04:14:32.199Z,100787.38
2023-05-10T04:16:59.122Z,100780.41
2023-05-10T04:19:30.300Z,100783.28
2023-05-10T04:21:57.050Z,100784.09
2023-05-10T04:24:23.791Z,100777.94
2023-05-10T04:26:50.522Z,100786.97
2023-05-10T04:29:17.295Z,100783.69
2023-05-10T04:31:43.940Z,100789.47
2023-05-10T04:34:10.653Z,100796.88
2023-05-10T04:36:38.709Z,100790.31
2023-05-10T04:39:05.414Z,100792.75
2023-05-10T04:41:32.181Z,100796.44
2023-05-10T04:43:58.839Z,100797.72
2023-05-10T04:46:25.904Z,100800.38
2023-05-10T04:48:52.789Z,100797.72
2023-05-10T04:51:19.504Z,100804.91
2023-05-10T04:54:01.543Z,100797.91
2023-05-10T04:56:33.575Z,100808.59
2023-05-10T04:59:01.784Z,100805.94
2023-05-10T05:01:28.530Z,100800.38
2023-05-10T05:03:55.537Z,100801.19
2023-05-10T05:06:22.412Z,100803.69
2023-05-10T05:08:50.677Z,100803.44
2023-05-10T05:11:17.762Z,100814.13
2023-05-10T05:13:44.836Z,100809.63
2023-05-10T05:16:12.376Z,100814.75
2023-05-10T05:18:39.433Z,100811.06
2023-05-10T05:21:16.055Z,100814.75
2023-05-10T05:23:42.850Z,100814.56
2023-05-10T05:26:11.649Z,100819.91
2023-05-10T05:28:38.658Z,100817.03
2023-05-10T05:31:05.671Z,100810.84
2023-05-10T05:33:32.556Z,100812.50
2023-05-10T05:36:01.582Z,100813.28
2023-05-10T05:38:28.431Z,100815.19
2023-05-10T05:40:55.224Z,100818.66
2023-05-10T05:43:23.582Z,100821.13
2023-05-10T05:45:50.722Z,100825.63
2023-05-10T05:48:17.473Z,100826.47
2023-05-10T05:50:44.450Z,100821.75
2023-05-10T05:53:11.211Z,100822.56
2023-05-10T05:55:38.022Z,100829.56
2023-05-10T05:58:04.717Z,100825.84
2023-05-10T06:00:33.934Z,100824.59
2023-05-10T06:03:00.800Z,100823.59
2023-05-10T06:05:27.722Z,100830.59
2023-05-10T06:07:54.436Z,100830.59
2023-05-10T06:10:21.209Z,100841.09
2023-05-10T06:12:50.520Z,100837.41
2023-05-10T06:15:17.962Z,100843.94
2023-05-10T06:17:46.509Z,100840.25
2023-05-10T06:20:14.138Z,100836.56
2023-05-10T06:22:40.831Z,100846.22
2023-05-10T06:25:08.659Z,100837.13
2023-05-10T06:27:35.312Z,100840.44
2023-05-10T06:30:12.355Z,100840.44
2023-05-10T06:32:40.301Z,100851.13
2023-05-10T06:35:09.715Z,100854.63
2023-05-10T06:37:36.480Z,100852.78
2023-05-10T06:40:03.356Z,100856.47
2023-05-10T06:42:30.095Z,100862.88
2023-05-10T06:44:56.847Z,100851.34
2023-05-10T06:47:23.705Z,100867.38
2023-05-10T06:49:50.596Z,100869.25
2023-05-10T06:52:22.625Z,100869.69
2023-05-10T06:54:49.790Z,100868.44
2023-05-10T06:57:30.694Z,100876.22
2023-05-10T06:59:58.855Z,100882.41
2023-05-10T07:02:25.940Z,100874.19
2023-05-10T07:04:53.460Z,100875.84
2023-05-10T07:07:21.821Z,100875.84
2023-05-10T07:09:48.618Z,100883.03
2023-05-10T07:12:16.080Z,100886.09
2023-05-10T07:14:43.046Z,100887.97
2023-05-10T07:17:09.894Z,100887.97
2023-05-10T07:19:37.004Z,100888.78
2023-05-10T07:22:04.052Z,100890.41
2023-05-10T07:24:33.359Z,100894.94
2023-05-10T07:27:00.249Z,100892.28
2023-05-10T07:29:27.191Z,100897.63
2023-05-10T07:31:55.895Z,100900.91
2023-05-10T07:34:23.875Z,100902.56
2023-05-10T07:36:50.635Z,100902.16
2023-05-10T07:39:26.579Z,100906.44
2023-05-10T07:41:56.168Z,100906.44
2023-05-10T07:44:23.084Z,100908.31
2023-05-10T07:46:51.345Z,100910.56
2023-05-10T07:49:18.018Z,100914.69
2023-05-10T07:51:46.095Z,100919.81
2023-05-10T07:54:13.807Z,100920.22
2023-05-10T07:56:41.602Z,100919.00
2023-05-10T07:59:11.318Z,100916.91
2023-05-10T08:01:39.588Z,100924.53
2023-05-10T08:04:06.413Z,100919.38
2023-05-10T08:06:33.210Z,100922.22
2023-05-10T08:09:01.010Z,100925.13
2023-05-10T08:11:29.901Z,100929.00
2023-05-10T08:13:56.572Z,100926.94
2023-05-10T08:16:24.775Z,100928.41
2023-05-10T08:18:52.064Z,100917.25
2023-05-10T08:21:19.006Z,100925.47
2023-05-10T08:23:45.731Z,100922.16
2023-05-10T08:26:12.772Z,100932.44
2023-05-10T08:28:39.684Z,100931.19
2023-05-10T08:31:07.123Z,100935.31
2023-05-10T08:33:35.266Z,100939.41
2023-05-10T08:36:02.056Z,100936.31
2023-05-10T08:38:28.875Z,100941.47
2023-05-10T08:40:57.980Z,100944.72
2023-05-10T08:43:27.981Z,100950.69
2023-05-10T08:45:57.365Z,100954.22
2023-05-10T08:48:25.962Z,100958.75
2023-05-10T08:50:57.570Z,100969.47
2023-05-10T08:53:28.268Z,100964.09
2023-05-10T08:55:55.515Z,100967.41
2023-05-10T08:58:22.439Z,100988.81
2023-05-10T09:00:52.175Z,100982.44
2023-05-10T09:03:19.179Z,100984.69
2023-05-10T09:05:46.187Z,100984.91
2023-05-10T09:08:16.754Z,100984.69
2023-05-10T09:10:46.987Z,100984.50
2023-05-10T09:13:15.489Z,100981.38
2023-05-10T09:15:42.387Z,100974.38
2023-05-10T09:18:09.137Z,100987.13
2023-05-10T09:20:35.882Z,100984.88
2023-05-10T09:23:02.858Z,100986.28
2023-05-10T09:25:30.974Z,100996.16
2023-05-10T09:27:57.769Z,100994.72
2023-05-10T09:30:26.789Z,101000.28
2023-05-10T09:32:54.436Z,101009.13
2023-05-10T09:35:22.860Z,101008.31
2023-05-10T09:37:52.099Z,101009.97
2023-05-10T09:40:20.416Z,101011.56
2023-05-10T09:42:56.696Z,101012.16
2023-05-10T09:45:25.457Z,101018.13
2023-05-10T09:47:52.961Z,101019.59
2023-05-10T09:50:20.307Z,101020.38
2023-05-10T09:52:49.992Z,101019.13
2023-05-10T09:55:17.688Z,101028.22
2023-05-10T09:57:44.861Z,101023.69
2023-05-10T10:00:19.700Z,101024.13
2023-05-10T10:02:48.660Z,101029.28
2023-05-10T10:05:16.330Z,101032.13
2023-05-10T10:07:43.340Z,101031.91
2023-05-10T10:10:13.508Z,101029.41
2023-05-10T10:12:41.977Z,101036.22
2023-05-10T10:15:09.971Z,101037.03
2023-05-10T10:17:39.964Z,101039.47
2023-05-10T10:20:11.144Z,101035.56
2023-05-10T10:22:39.684Z,101039.22
2023-05-10T10:25:07.456Z,101038.81
2023-05-10T10:27:46.080Z,101045.38
2023-05-10T10:30:25.215Z,101044.75
2023-05-10T10:33:27.347Z,101046.97
2023-05-10T10:35:56.648Z,101048.25
2023-05-10T10:38:23.929Z,101045.38
2023-05-10T10:41:03.387Z,101041.38
2023-05-10T10:43:31.376Z,101045.94
2023-05-10T10:46:15.234Z,101050.09
2023-05-10T10:48:49.053Z,101045.59
2023-05-10T10:51:15.920Z,101050.75
2023-05-10T10:53:43.832Z,101038.13
2023-05-10T10:56:12.672Z,101041.41
2023-05-10T10:58:40.097Z,101047.84
2023-05-10T11:01:18.094Z,101042.69
2023-05-10T11:04:21.076Z,101041.84
2023-05-10T11:06:48.005Z,101051.75
2023-05-10T11:09:14.753Z,101046.34
2023-05-10T11:11:53.210Z,101048.19
2023-05-10T11:14:23.000Z,101052.69
2023-05-10T11:16:53.243Z,101048.19
2023-05-10T11:19:21.464Z,101050.03
2023-05-10T11:21:51.507Z,101052.88
2023-05-10T11:24:20.124Z,101057.78
2023-05-10T11:26:47.152Z,101054.88
2023-05-10T11:29:14.753Z,101057.28
2023-05-10T11:31:46.346Z,101060.75
2023-05-10T11:34:23.550Z,101066.91
2023-05-10T11:36:54.839Z,101056.72
2023-05-10T11:39:22.563Z,101053.75
2023-05-10T11:41:50.862Z,101061.56
2023-05-10T11:44:18.426Z,101054.53
2023-05-10T11:46:45.193Z,101055.72
2023-05-10T11:49:12.759Z,101061.47
2023-05-10T11:51:40.434Z,101055.81
2023-05-10T11:54:10.651Z,101053.91
2023-05-10T11:56:37.789Z,101064.00
2023-05-10T11:59:05.352Z,101053.41
2023-05-10T12:01:33.811Z,101061.03
2023-05-10T12:04:01.858Z,101062.44
2023-05-10T12:06:33.249Z,101060.16
2023-05-10T12:09:00.769Z,101060.50
2023-05-10T12:11:29.719Z,101054.50
2023-05-10T12:13:57.676Z,101056.28
2023-05-10T12:16:30.467Z,101060.16
2023-05-10T12:18:58.909Z,101065.91
2023-05-10T12:21:26.666Z,101061.13
2023-05-10T12:23:56.580Z,101069.56
2023-05-10T12:26:24.282Z,101063.50
2023-05-10T12:28:52.773Z,101067.78
2023-05-10T12:31:20.221Z,101068.97
2023-05-10T12:33:48.390Z,101069.19
2023-05-10T12:36:16.690Z,101076.59
2023-05-10T12:38:45.672Z,101062.28
2023-05-10T12:41:14.107Z,101072.59
2023-05-10T12:43:41.522Z,101065.34
2023-05-10T12:46:12.709Z,101071.06
2023-05-10T12:48:42.067Z,101069.91
2023-05-10T12:51:10.551Z,101077.56
2023-05-10T12:53:37.967Z,101083.94
2023-05-10T12:56:05.315Z,101078.72
2023-05-10T12:58:36.039Z,101074.16
2023-05-10T13:01:03.945Z,101080.19
2023-05-10T13:03:32.300Z,101083.47
2023-05-10T13:05:59.052Z,101085.25
2023-05-10T13:08:26.235Z,101084.00
2023-05-10T13:10:53.258Z,101088.69
2023-05-10T13:13:20.224Z,101085.56
2023-05-10T13:15:47.067Z,101094.59
2023-05-10T13:18:14.110Z,101091.22
2023-05-10T13:20:44.124Z,101085.38
2023-05-10T13:23:11.039Z,101091.59
2023-05-10T13:25:39.934Z,101092.19
2023-05-10T13:28:06.699Z,101095.09
2023-05-10T13:30:33.639Z,101090.53
2023-05-10T13:33:00.515Z,101096.75
2023-05-10T13:35:27.281Z,101089.13
2023-05-10T13:37:58.660Z,101095.53
2023-05-10T13:40:25.636Z,101098.72
2023-05-10T13:43:03.528Z,101103.91
2023-05-10T13:45:30.496Z,101105.88
2023-05-10T13:47:57.381Z,101105.72
2023-05-10T13:50:24.575Z,101107.69
2023-05-10T13:52:51.250Z,101109.41
2023-05-10T13:55:19.640Z,101113.78
2023-05-10T13:57:46.742Z,101109.06
2023-05-10T14:00:14.512Z,101113.47
2023-05-10T14:02:42.064Z,101108.97
2023-05-10T14:05:09.347Z,101111.06
2023-05-10T14:07:35.998Z,101108.84
2023-05-10T14:10:02.683Z,101113.59
2023-05-10T14:12:31.535Z,101115.91
2023-05-10T14:14:59.150Z,101109.34
2023-05-10T14:17:25.867Z,101103.13
2023-05-10T14:19:53.886Z,101101.72
2023-05-10T14:22:20.643Z,101104.63
2023-05-10T14:24:47.921Z,101108.16
2023-05-10T14:27:15.144Z,101107.31
2023-05-10T14:29:43.242Z,101107.53
2023-05-10T14:32:10.400Z,101114.78
2023-05-10T14:34:38.286Z,101113.13
2023-05-10T14:37:05.681Z,101107.75
2023-05-10T14:39:32.625Z,101104.84
2023-05-10T14:41:59.552Z,101107.31
2023-05-10T14:44:27.197Z,101106.72
2023-05-10T14:46:56.145Z,101112.16
2023-05-10T14:49:25.782Z,101110.94
2023-05-10T14:51:52.759Z,101113.69
2023-05-10T14:54:19.525Z,101117.66
2023-05-10T14:56:46.264Z,101117.53
2023-05-10T14:59:15.537Z,101113.44
2023-05-10T15:01:43.218Z,101123.56
2023-05-10T15:04:12.293Z,101120.44
2023-05-10T15:06:39.180Z,101120.22
2023-05-10T15:09:06.005Z,101121.53
2023-05-10T15:11:33.154Z,101119.53
2023-05-10T15:13:59.910Z,101127.00
2023-05-10T15:16:27.107Z,101123.09
2023-05-10T15:18:56.722Z,101119.38
2023-05-10T15:21:24.819Z,101128.63
2023-05-10T15:23:51.662Z,101127.16
2023-05-10T15:26:27.223Z,101126.50
2023-05-10T15:28:53.880Z,101132.50
2023-05-10T15:31:21.122Z,101135.84
2023-05-10T15:34:00.856Z,101142.00
2023-05-10T15:36:28.984Z,101149.25
2023-05-10T15:38:56.057Z,101144.88
2023-05-10T15:41:22.944Z,101138.84
2023-05-10T15:43:49.882Z,101143.78
2023-05-10T15:46:19.175Z,101143.78
2023-05-10T15:48:47.090Z,101148.34
2023-05-10T15:51:13.942Z,101147.72
2023-05-10T15:53:56.502Z,101149.22
2023-05-10T15:56:29.558Z,101152.53
2023-05-10T15:58:56.434Z,101152.75
2023-05-10T16:01:23.463Z,101151.75
2023-05-10T16:03:50.426Z,101156.69
2023-05-10T16:06:17.565Z,101156.88
2023-05-10T16:08:46.402Z,101154.59
2023-05-10T16:11:13.526Z,101153.50
2023-05-10T16:13:40.504Z,101156.66
2023-05-10T16:16:09.187Z,101149.06
2023-05-10T16:18:39.613Z,101146.63
2023-05-10T16:21:06.739Z,101149.53
2023-05-10T16:23:33.474Z,101144.94
2023-05-10T16:26:01.658Z,101148.81
2023-05-10T16:28:28.857Z,101149.59
2023-05-10T16:30:56.335Z,101162.13
2023-05-10T16:33:23.212Z,101152.06
2023-05-10T16:35:49.873Z,101158.09
2023-05-10T16:38:22.772Z,101163.00
2023-05-10T16:40:49.581Z,101157.22
2023-05-10T16:43:21.720Z,101160.94
2023-05-10T16:45:49.870Z,101163.63
2023-05-10T16:48:16.949Z,101170.84
2023-05-10T16:50:45.115Z,101177.09
2023-05-10T16:53:11.821Z,101166.78
2023-05-10T16:55:38.542Z,101171.94
2023-05-10T16:58:05.754Z,101169.66
2023-05-10T17:00:35.381Z,101185.38
2023-05-10T17:03:03.843Z,101180.03
2023-05-10T17:05:30.747Z,101183.38
2023-05-10T17:07:58.134Z,101193.66
2023-05-10T17:10:26.558Z,101184.16
2023-05-10T17:12:53.884Z,101194.91
2023-05-10T17:15:21.047Z,101183.91
2023-05-10T17:17:51.206Z,101183.91
2023-05-10T17:20:18.305Z,101186.66
2023-05-10T17:22:46.195Z,101196.16
2023-05-10T17:25:13.028Z,101196.75
2023-05-10T17:27:42.302Z,101196.09
2023-05-10T17:30:09.926Z,101195.06
2023-05-10T17:32:36.679Z,101188.03
2023-05-10T17:35:05.853Z,101191.56
2023-05-10T17:37:34.163Z,101202.97
2023-05-10T17:40:01.402Z,101210.78
2023-05-10T17:42:28.214Z,101213.25
2023-05-10T17:44:55.295Z,101214.91
2023-05-10T17:47:22.983Z,101208.69
2023-05-10T17:49:50.113Z,101201.69
2023-05-10T17:52:18.288Z,101204.81
2023-05-10T17:54:45.108Z,101210.59
2023-05-10T17:57:12.108Z,101211.63
2023-05-10T17:59:39.231Z,101210.22
2023-05-10T18:02:05.932Z,101216.00
2023-05-10T18:04:35.196Z,101216.00
2023-05-10T18:07:02.076Z,101212.91
2023-05-10T18:09:31.498Z,101218.28
2023-05-10T18:11:58.205Z,101216.00
2023-05-10T18:14:36.517Z,101220.97
2023-05-10T18:17:09.947Z,101216.66
2023-05-10T18:19:36.815Z,101218.13
2023-05-10T18:22:03.634Z,101218.56
2023-05-10T18:24:38.204Z,101220.06
2023-05-10T18:27:06.808Z,101214.28
2023-05-10T18:29:36.521Z,101225.66
2023-05-10T18:32:03.660Z,101233.91
2023-05-10T18:34:30.438Z,101233.31
2023-05-10T18:37:00.266Z,101234.75
2023-05-10T18:39:27.215Z,101231.91
2023-05-10T18:41:55.538Z,101227.78
2023-05-10T18:44:25.841Z,101229.25
2023-05-10T18:46:54.259Z,101228.00
2023-05-10T18:49:21.137Z,101232.34
2023-05-10T18:51:49.027Z,101243.47
2023-05-10T18:54:15.962Z,101247.16
2023-05-10T18:56:45.180Z,101241.41
2023-05-10T18:59:13.497Z,101237.88
2023-05-10T19:01:41.130Z,101236.25
2023-05-10T19:04:08.957Z,101236.47
2023-05-10T19:06:36.096Z,101242.88
2023-05-10T19:09:05.903Z,101243.06
2023-05-10T19:11:34.542Z,101246.38
2023-05-10T19:14:02.717Z,101247.19
2023-05-10T19:16:30.974Z,101247.19
2023-05-10T19:18:57.958Z,101247.41
2023-05-10T19:21:24.922Z,101245.75
2023-05-10T19:23:52.171Z,101248.03
2023-05-10T19:26:19.332Z,101251.53
2023-05-10T19:28:46.060Z,101256.06
2023-05-10T19:31:13.012Z,101250.72
2023-05-10T19:33:41.088Z,101250.91
2023-05-10T19:36:07.903Z,101254.63
2023-05-10T19:38:35.385Z,101260.19
2023-05-10T19:41:02.172Z,101259.59
2023-05-10T19:43:33.410Z,101266.81
2023-05-10T19:46:02.251Z,101263.50
2023-05-10T19:48:29.209Z,101262.88
2023-05-10T19:51:02.244Z,101274.88
2023-05-10T19:53:29.317Z,101267.03
2023-05-10T19:56:03.352Z,101276.50
2023-05-10T19:58:30.275Z,101285.59
2023-05-10T20:00:57.039Z,101290.34
2023-05-10T20:03:23.818Z,101280.44
2023-05-10T20:05:50.823Z,101287.22
2023-05-10T20:08:18.884Z,101295.69
2023-05-10T20:10:45.929Z,101289.91
2023-05-10T20:13:12.708Z,101293.38
2023-05-10T20:15:39.360Z,101289.69
2023-05-10T20:18:06.204Z,101294.81
2023-05-10T20:20:33.040Z,101303.28
2023-05-10T20:23:01.076Z,101301.00
2023-05-10T20:25:29.184Z,101294.41
2023-05-10T20:27:55.916Z,101297.91
2023-05-10T20:30:22.660Z,101296.25
2023-05-10T20:32:49.453Z,101291.09
2023-05-10T20:35:16.355Z,101301.19
2023-05-10T20:37:43.121Z,101305.72
2023-05-10T20:40:11.125Z,101308.59
2023-05-10T20:42:39.257Z,101305.09
2023-05-10T20:45:07.263Z,101309.19
2023-05-10T20:47:34.141Z,101307.56
2023-05-10T20:50:00.830Z,101293.75
2023-05-10T20:52:27.694Z,101300.13
2023-05-10T20:54:54.426Z,101299.50
2023-05-10T20:57:21.958Z,101300.56
2023-05-10T20:59:51.215Z,101298.72
2023-05-10T21:02:18.068Z,101297.06
2023-05-10T21:04:45.106Z,101301.56
2023-05-10T21:07:12.210Z,101303.63
2023-05-10T21:09:38.932Z,101298.28
2023-05-10T21:12:06.178Z,101301.78
2023-05-10T21:14:33.071Z,101302.59
2023-05-10T21:17:01.148Z,101302.59
2023-05-10T21:19:28.843Z,101303.44
2023-05-10T21:21:57.168Z,101305.28
2023-05-10T21:24:24.042Z,101310.63
2023-05-10T21:26:56.135Z,101304.44
2023-05-10T21:29:22.798Z,101298.28
2023-05-10T21:31:49.764Z,101299.91
2023-05-10T21:34:18.008Z,101299.28
2023-05-10T21:36:44.688Z,101306.31
2023-05-10T21:39:11.646Z,101302.59
2023-05-10T21:41:38.331Z,101306.09
2023-05-10T21:44:05.395Z,101305.28
2023-05-10T21:46:32.163Z,101303.44
2023-05-10T21:48:58.898Z,101300.75
2023-05-10T21:51:26.919Z,101301.78
2023-05-10T21:53:53.655Z,101302.59
2023-05-10T21:56:20.622Z,101307.13
2023-05-10T21:58:47.606Z,101297.63
2023-05-10T22:01:15.315Z,101302.16
2023-05-10T22:03:42.789Z,101301.34
2023-05-10T22:06:09.575Z,101301.56
2023-05-10T22:08:37.695Z,101303.22
2023-05-10T22:11:05.098Z,101313.09
2023-05-10T22:13:31.800Z,101313.09
2023-05-10T22:15:59.060Z,101308.78
2023-05-10T22:18:25.894Z,101305.47
2023-05-10T22:20:52.639Z,101313.50
2023-05-10T22:23:19.401Z,101309.16
2023-05-10T22:25:47.521Z,101308.34
2023-05-10T22:28:14.566Z,101306.47
2023-05-10T22:30:41.839Z,101308.97
2023-05-10T22:33:08.732Z,101306.28
2023-05-10T22:35:35.681Z,101312.47
2023-05-10T22:38:02.475Z,101309.78
2023-05-10T22:40:29.184Z,101304.44
2023-05-10T22:42:57.381Z,101314.13
2023-05-10T22:45:24.135Z,101307.13
2023-05-10T22:47:51.196Z,101308.13
2023-05-10T22:50:18.654Z,101317.81
2023-05-10T22:52:45.773Z,101314.31
2023-05-10T22:55:12.511Z,101314.94
2023-05-10T22:57:39.480Z,101320.31
2023-05-10T23:00:09.350Z,101314.72
2023-05-10T23:02:36.252Z,101315.78
2023-05-10T23:05:03.279Z,101320.91
2023-05-10T23:07:30.060Z,101324.63
2023-05-10T23:09:56.838Z,101325.44
2023-05-10T23:12:24.047Z,101323.81
2023-05-10T23:14:56.576Z,101321.31
2023-05-10T23:17:24.795Z,101323.19
2023-05-10T23:19:51.517Z,101318.84
2023-05-10T23:22:18.284Z,101322.16
2023-05-10T23:24:44.929Z,101319.47
2023-05-10T23:27:11.682Z,101313.28
2023-05-10T23:29:38.373Z,101321.53
2023-05-10T23:32:05.712Z,101327.28
2023-05-10T23:34:33.895Z,101327.28
2023-05-10T23:37:00.696Z,101334.50
2023-05-10T23:39:27.449Z,101327.50
2023-05-10T23:41:54.647Z,101320.28
2023-05-10T23:44:21.293Z,101319.22
2023-05-10T23:46:47.914Z,101324.00
2023-05-10T23:49:14.769Z,101324.81
2023-05-10T23:51:42.856Z,101324.00
2023-05-10T23:54:09.642Z,101328.31
2023-05-10T23:56:36.515Z,101323.78
2023-05-10T23:59:03.364Z,101336.34
